createdAt,value
2023-05-18T00:01:44.709Z,13.25
2023-05-18T00:04:12.470Z,13.50
2023-05-18T00:06:40.022Z,12.50
2023-05-18T00:09:07.533Z,12.50
2023-05-18T00:11:39.716Z,12.50
2023-05-18T00:14:08.411Z,8.25
2023-05-18T00:16:36.210Z,13.50
2023-05-18T00:19:05.354Z,10.00
2023-05-18T00:21:33.737Z,12.00
2023-05-18T00:24:01.962Z,14.00
2023-05-18T00:26:30.066Z,13.50
2023-05-18T00:28:57.525Z,12.50
2023-05-18T00:31:24.975Z,13.75
2023-05-18T00:33:52.363Z,11.00
2023-05-18T00:36:19.731Z,11.50
2023-05-18T00:38:47.114Z,13.50
2023-05-18T00:41:14.535Z,14.75
2023-05-18T00:43:42.000Z,16.75
2023-05-18T00:46:09.652Z,17.50
2023-05-18T00:48:37.081Z,18.75
2023-05-18T00:51:05.640Z,17.50
2023-05-18T00:53:33.917Z,19.75
2023-05-18T00:56:01.317Z,20.00
2023-05-18T00:58:29.167Z,0.00
2023-05-18T01:00:57.362Z,20.00
2023-05-18T01:03:26.450Z,22.00
2023-05-18T01:05:58.218Z,23.00
2023-05-18T01:08:28.295Z,21.33
2023-05-18T01:11:42.169Z,20.67
2023-05-18T01:14:30.659Z,21.00
2023-05-18T01:17:29.358Z,22.67
2023-05-18T01:20:29.450Z,22.67
2023-05-18T01:23:01.957Z,21.33
2023-05-18T01:25:54.474Z,22.67
2023-05-18T01:28:28.686Z,23.33
2023-05-18T01:30:56.767Z,21.33
2023-05-18T01:33:27.213Z,22.33
2023-05-18T01:35:54.716Z,23.00
2023-05-18T01:38:27.935Z,21.67
2023-05-18T01:41:24.389Z,23.25
2023-05-18T01:44:12.689Z,23.00
2023-05-18T01:47:14.027Z,23.67
2023-05-18T01:50:09.171Z,23.50
2023-05-18T01:52:42.985Z,23.25
2023-05-18T01:55:14.281Z,13.33
2023-05-18T01:57:45.737Z,21.75
2023-05-18T02:00:13.523Z,22.33
2023-05-18T02:02:41.703Z,23.67
2023-05-18T02:05:12.530Z,26.00
2023-05-18T02:07:40.983Z,24.00
2023-05-18T02:10:09.011Z,25.25
2023-05-18T02:12:36.642Z,24.00
2023-05-18T02:15:05.744Z,24.00
2023-05-18T02:17:34.558Z,24.00
2023-05-18T02:20:02.168Z,26.25
2023-05-18T02:22:29.961Z,27.00
2023-05-18T02:24:57.373Z,25.50
2023-05-18T02:27:24.799Z,24.75
2023-05-18T02:29:52.280Z,22.50
2023-05-18T02:32:19.958Z,25.50
2023-05-18T02:34:50.304Z,24.25
2023-05-18T02:37:17.669Z,23.00
2023-05-18T02:39:45.114Z,21.00
2023-05-18T02:42:13.326Z,22.67
2023-05-18T02:44:42.216Z,22.67
2023-05-18T02:47:09.737Z,13.33
2023-05-18T02:49:37.088Z,22.67
2023-05-18T02:52:04.766Z,23.33
2023-05-18T02:54:32.894Z,22.00
2023-05-18T02:57:00.516Z,22.25
2023-05-18T02:59:27.899Z,23.25
2023-05-18T03:01:55.384Z,12.75
2023-05-18T03:04:25.937Z,21.33
2023-05-18T03:06:53.666Z,22.00
2023-05-18T03:09:21.037Z,22.67
2023-05-18T03:11:48.606Z,21.33
2023-05-18T03:14:16.219Z,19.67
2023-05-18T03:16:43.663Z,15.67
2023-05-18T03:19:14.375Z,28.25
2023-05-18T03:21:42.661Z,20.67
2023-05-18T03:24:10.092Z,11.33
2023-05-18T03:26:39.897Z,19.00
2023-05-18T03:29:07.405Z,20.33
2023-05-18T03:31:35.205Z,20.50
2023-05-18T03:34:02.676Z,19.33
2023-05-18T03:36:30.268Z,23.33
2023-05-18T03:38:57.639Z,19.00
2023-05-18T03:41:25.147Z,19.75
2023-05-18T03:43:52.584Z,21.75
2023-05-18T03:46:20.710Z,19.50
2023-05-18T03:48:48.409Z,22.00
2023-05-18T03:51:16.257Z,19.75
2023-05-18T03:53:44.452Z,23.00
2023-05-18T03:56:13.426Z,20.00
2023-05-18T03:58:42.520Z,21.25
2023-05-18T04:01:10.840Z,21.75
2023-05-18T04:03:38.455Z,26.00
2023-05-18T04:06:06.658Z,20.50
2023-05-18T04:08:34.598Z,23.00
2023-05-18T04:11:02.184Z,20.00
2023-05-18T04:13:29.805Z,22.25
2023-05-18T04:18:37.561Z,20.50
2023-05-18T04:21:06.588Z,21.50
2023-05-18T04:23:39.423Z,22.00
2023-05-18T04:26:07.138Z,20.50
2023-05-18T04:28:35.078Z,23.00
2023-05-18T04:31:02.826Z,20.00
2023-05-18T04:33:30.573Z,19.25
2023-05-18T04:35:59.061Z,20.25
2023-05-18T04:38:26.541Z,20.00
2023-05-18T04:40:57.617Z,22.25
2023-05-18T04:43:25.153Z,16.50
2023-05-18T04:45:52.803Z,18.50
2023-05-18T04:48:20.394Z,30.00
2023-05-18T04:50:47.931Z,17.25
2023-05-18T04:53:18.265Z,20.00
2023-05-18T04:55:46.587Z,22.50
2023-05-18T04:58:15.226Z,19.00
2023-05-18T05:00:43.251Z,19.75
2023-05-18T05:03:10.855Z,19.00
2023-05-18T05:05:38.451Z,19.00
2023-05-18T05:08:06.735Z,19.50
2023-05-18T05:10:34.475Z,19.50
2023-05-18T05:13:01.914Z,21.75
2023-05-18T05:15:31.045Z,22.50
2023-05-18T05:17:59.196Z,22.25
2023-05-18T05:20:26.732Z,22.00
2023-05-18T05:22:54.240Z,20.00
2023-05-18T05:25:21.750Z,21.25
2023-05-18T05:27:49.129Z,20.00
2023-05-18T05:30:16.557Z,19.50
2023-05-18T05:32:44.265Z,17.75
2023-05-18T05:35:11.725Z,19.75
2023-05-18T05:37:39.409Z,13.75
2023-05-18T05:40:07.838Z,19.25
2023-05-18T05:42:35.673Z,18.00
2023-05-18T05:45:03.603Z,16.75
2023-05-18T05:47:33.256Z,17.75
2023-05-18T05:50:00.775Z,15.50
2023-05-18T05:52:29.185Z,19.25
2023-05-18T05:54:56.715Z,20.00
2023-05-18T05:57:24.198Z,22.00
2023-05-18T05:59:51.706Z,20.25
2023-05-18T06:02:19.279Z,16.50
2023-05-18T06:04:46.834Z,21.75
2023-05-18T06:07:14.268Z,18.25
2023-05-18T06:09:42.014Z,15.40
2023-05-18T06:12:09.758Z,16.60
2023-05-18T06:14:37.059Z,19.00
2023-05-18T06:17:04.859Z,15.20
2023-05-18T06:19:32.316Z,14.40
2023-05-18T06:21:59.762Z,17.60
2023-05-18T06:24:27.179Z,17.60
2023-05-18T06:26:54.594Z,16.20
2023-05-18T06:29:22.026Z,16.80
2023-05-18T06:31:49.609Z,12.80
2023-05-18T06:34:17.373Z,15.00
2023-05-18T06:36:44.778Z,15.60
2023-05-18T06:39:12.194Z,16.00
2023-05-18T06:41:39.663Z,16.00
2023-05-18T06:44:07.180Z,17.80
2023-05-18T06:46:34.723Z,14.00
2023-05-18T06:49:02.333Z,17.80
2023-05-18T06:51:30.023Z,13.40
2023-05-18T06:53:57.841Z,14.60
2023-05-18T06:56:25.892Z,16.20
2023-05-18T06:58:53.304Z,13.60
2023-05-18T07:01:20.851Z,17.40
2023-05-18T07:03:48.366Z,14.40
2023-05-18T07:06:15.867Z,16.00
2023-05-18T07:08:44.791Z,17.40
2023-05-18T07:11:12.234Z,15.40
2023-05-18T07:13:40.083Z,19.00
2023-05-18T07:16:07.479Z,13.60
2023-05-18T07:18:35.326Z,16.40
2023-05-18T07:21:02.834Z,15.00
2023-05-18T07:23:30.413Z,17.20
2023-05-18T07:25:57.845Z,13.40
2023-05-18T07:28:25.326Z,18.40
2023-05-18T07:30:52.706Z,15.80
2023-05-18T07:33:20.144Z,19.00
2023-05-18T07:35:47.592Z,13.80
2023-05-18T07:38:14.982Z,16.00
2023-05-18T07:40:42.617Z,16.80
2023-05-18T07:43:10.602Z,15.60
2023-05-18T07:45:38.155Z,16.00
2023-05-18T07:48:07.961Z,17.40
2023-05-18T07:50:37.128Z,15.60
2023-05-18T07:53:04.560Z,17.80
2023-05-18T07:55:32.513Z,15.80
2023-05-18T07:58:03.031Z,16.00
2023-05-18T08:00:31.282Z,16.20
2023-05-18T08:03:00.913Z,17.20
2023-05-18T08:05:28.715Z,13.80
2023-05-18T08:07:56.559Z,15.40
2023-05-18T08:10:24.329Z,14.40
2023-05-18T08:12:52.893Z,15.80
2023-05-18T08:15:20.288Z,15.80
2023-05-18T08:17:47.789Z,18.40
2023-05-18T08:20:15.273Z,15.80
2023-05-18T08:22:42.709Z,16.00
2023-05-18T08:25:10.390Z,14.20
2023-05-18T08:27:37.902Z,16.60
2023-05-18T08:30:05.881Z,14.60
2023-05-18T08:32:37.039Z,15.00
2023-05-18T08:35:08.605Z,17.80
2023-05-18T08:37:37.428Z,16.60
2023-05-18T08:40:07.904Z,16.20
2023-05-18T08:43:00.321Z,16.00
2023-05-18T08:45:36.271Z,14.80
2023-05-18T08:48:05.936Z,14.40
2023-05-18T08:50:34.938Z,16.00
2023-05-18T08:53:06.273Z,16.20
2023-05-18T08:55:37.519Z,15.00
2023-05-18T08:58:09.352Z,15.40
2023-05-18T09:00:37.391Z,16.00
2023-05-18T09:03:06.405Z,6.20
2023-05-18T09:05:34.811Z,14.20
2023-05-18T09:08:03.735Z,14.20
2023-05-18T09:10:33.785Z,12.80
2023-05-18T09:13:05.462Z,12.80
2023-05-18T09:15:35.531Z,17.00
2023-05-18T09:18:03.989Z,14.20
2023-05-18T09:20:31.589Z,14.60
2023-05-18T09:23:00.235Z,14.40
2023-05-18T09:25:30.633Z,15.40
2023-05-18T09:27:58.196Z,14.60
2023-05-18T09:30:25.768Z,15.60
2023-05-18T09:32:53.495Z,14.00
2023-05-18T09:35:21.997Z,14.00
2023-05-18T09:37:50.060Z,13.00
2023-05-18T09:40:19.567Z,12.00
2023-05-18T09:42:48.690Z,14.00
2023-05-18T09:45:24.272Z,13.20
2023-05-18T09:47:52.926Z,18.00
2023-05-18T09:50:24.519Z,18.00
2023-05-18T09:52:52.075Z,20.20
2023-05-18T09:55:20.927Z,19.20
2023-05-18T09:57:50.481Z,11.80
2023-05-18T10:00:20.849Z,19.60
2023-05-18T10:02:52.671Z,14.00
2023-05-18T10:05:27.996Z,13.40
2023-05-18T10:07:56.112Z,10.60
2023-05-18T10:10:26.306Z,10.60
2023-05-18T10:12:56.060Z,14.80
2023-05-18T10:15:24.649Z,12.40
2023-05-18T10:17:56.398Z,10.00
2023-05-18T10:20:26.099Z,14.20
2023-05-18T10:22:55.966Z,13.00
2023-05-18T10:25:26.535Z,13.80
2023-05-18T10:28:07.985Z,12.20
2023-05-18T10:30:36.292Z,10.00
2023-05-18T10:33:11.293Z,14.40
2023-05-18T10:35:46.529Z,14.00
2023-05-18T10:38:25.211Z,15.00
2023-05-18T10:40:55.759Z,12.40
2023-05-18T10:43:28.426Z,11.80
2023-05-18T10:45:58.739Z,14.00
2023-05-18T10:48:28.020Z,13.60
2023-05-18T10:50:57.603Z,13.40
2023-05-18T10:53:29.538Z,10.40
2023-05-18T10:55:57.139Z,8.20
2023-05-18T10:58:27.172Z,12.40
2023-05-18T11:00:57.462Z,16.20
2023-05-18T11:03:27.284Z,13.00
2023-05-18T11:06:12.322Z,15.40
2023-05-18T11:08:50.955Z,11.40
2023-05-18T11:11:23.554Z,13.40
2023-05-18T11:13:54.427Z,13.60
2023-05-18T11:16:34.750Z,12.40
2023-05-18T11:19:07.376Z,10.80
2023-05-18T11:21:41.547Z,13.00
2023-05-18T11:24:31.379Z,14.80
2023-05-18T11:27:03.685Z,12.80
2023-05-18T11:29:36.104Z,14.20
2023-05-18T11:32:05.054Z,13.60
2023-05-18T11:34:46.526Z,11.40
2023-05-18T11:37:38.341Z,13.20
2023-05-18T11:40:11.343Z,10.00
2023-05-18T11:42:39.522Z,12.60
2023-05-18T11:45:08.284Z,12.40
2023-05-18T11:47:37.087Z,15.00
2023-05-18T11:50:08.542Z,12.40
2023-05-18T11:52:47.489Z,12.40
2023-05-18T11:55:17.130Z,10.20
2023-05-18T11:57:47.725Z,11.20
2023-05-18T12:00:16.415Z,12.80
2023-05-18T12:02:45.966Z,12.00
2023-05-18T12:05:14.907Z,12.40
2023-05-18T12:07:44.991Z,13.40
2023-05-18T12:10:17.712Z,11.60
2023-05-18T12:12:49.384Z,12.40
2023-05-18T12:15:17.588Z,12.80
2023-05-18T12:17:49.808Z,11.60
2023-05-18T12:20:22.712Z,13.00
2023-05-18T12:22:54.766Z,13.80
2023-05-18T12:25:24.291Z,16.20
2023-05-18T12:27:53.282Z,13.40
2023-05-18T12:30:34.476Z,11.20
2023-05-18T12:33:02.722Z,8.00
2023-05-18T12:35:31.386Z,10.00
2023-05-18T12:38:00.899Z,10.40
2023-05-18T12:40:46.657Z,13.00
2023-05-18T12:43:14.371Z,11.00
2023-05-18T12:45:44.687Z,9.60
2023-05-18T12:48:13.287Z,9.60
2023-05-18T12:50:53.290Z,10.00
2023-05-18T12:53:20.996Z,12.00
2023-05-18T12:55:59.716Z,11.60
2023-05-18T12:58:27.382Z,9.60
2023-05-18T13:00:54.992Z,11.00
2023-05-18T13:03:22.919Z,11.20
2023-05-18T13:06:07.488Z,10.20
2023-05-18T13:08:36.797Z,8.80
2023-05-18T13:11:13.519Z,10.00
2023-05-18T13:14:04.262Z,8.60
2023-05-18T13:16:34.189Z,11.60
2023-05-18T13:19:04.455Z,10.20
2023-05-18T13:21:32.593Z,11.20
2023-05-18T13:24:03.595Z,11.00
2023-05-18T13:26:31.542Z,12.20
2023-05-18T13:29:00.321Z,11.00
2023-05-18T13:31:29.838Z,11.00
2023-05-18T13:33:57.873Z,9.00
2023-05-18T13:36:26.165Z,12.00
2023-05-18T13:38:54.252Z,10.40
2023-05-18T13:41:21.710Z,9.60
2023-05-18T13:43:49.616Z,7.80
2023-05-18T13:46:18.841Z,10.00
2023-05-18T13:48:46.376Z,13.20
2023-05-18T13:51:14.217Z,9.00
2023-05-18T13:53:41.830Z,8.00
2023-05-18T13:56:09.393Z,8.40
2023-05-18T13:58:36.857Z,7.40
2023-05-18T14:01:08.069Z,8.00
2023-05-18T14:03:36.811Z,5.20
2023-05-18T14:06:04.595Z,8.20
2023-05-18T14:08:32.223Z,6.60
2023-05-18T14:10:59.795Z,8.00
2023-05-18T14:13:27.289Z,6.00
2023-05-18T14:15:54.894Z,7.20
2023-05-18T14:18:22.486Z,5.00
2023-05-18T14:20:49.896Z,5.80
2023-05-18T14:23:17.263Z,4.00
2023-05-18T14:25:46.000Z,5.00
2023-05-18T14:28:13.666Z,7.20
2023-05-18T14:30:41.627Z,5.20
2023-05-18T14:33:09.223Z,7.00
2023-05-18T14:35:36.811Z,4.40
2023-05-18T14:38:05.865Z,4.40
2023-05-18T14:40:33.936Z,9.40
2023-05-18T14:43:01.307Z,7.40
2023-05-18T14:45:29.321Z,7.00
2023-05-18T14:47:56.856Z,7.40
2023-05-18T14:50:24.476Z,5.40
2023-05-18T14:52:52.388Z,6.00
2023-05-18T14:55:19.927Z,6.00
2023-05-18T14:57:47.448Z,3.00
2023-05-18T15:00:15.309Z,9.60
2023-05-18T15:02:43.488Z,6.60
2023-05-18T15:05:11.514Z,5.20
2023-05-18T15:07:38.980Z,8.20
2023-05-18T15:10:07.040Z,8.20
2023-05-18T15:12:34.973Z,9.20
2023-05-18T15:15:02.643Z,7.00
2023-05-18T15:17:30.519Z,7.40
2023-05-18T15:19:57.972Z,6.80
2023-05-18T15:22:25.449Z,6.20
2023-05-18T15:24:52.936Z,6.80
2023-05-18T15:27:20.350Z,8.00
2023-05-18T15:29:48.596Z,6.20
2023-05-18T15:32:16.330Z,8.00
2023-05-18T15:34:43.831Z,8.40
2023-05-18T15:37:11.248Z,20.40
2023-05-18T15:39:38.902Z,8.60
2023-05-18T15:42:06.884Z,1.00
2023-05-18T15:44:34.758Z,7.60
2023-05-18T15:47:02.224Z,7.00
2023-05-18T15:49:30.138Z,8.40
2023-05-18T15:51:57.739Z,6.20
2023-05-18T15:54:25.200Z,11.20
2023-05-18T15:56:52.850Z,8.20
2023-05-18T15:59:20.404Z,8.60
2023-05-18T16:01:48.830Z,8.20
2023-05-18T16:04:16.344Z,8.00
2023-05-18T16:06:43.852Z,8.00
2023-05-18T16:09:11.344Z,7.00
2023-05-18T16:11:38.799Z,9.00
2023-05-18T16:14:06.837Z,9.60
2023-05-18T16:16:34.395Z,7.20
2023-05-18T16:19:02.481Z,6.80
2023-05-18T16:21:30.286Z,6.80
2023-05-18T16:23:57.697Z,6.40
2023-05-18T16:26:26.237Z,8.40
2023-05-18T16:28:53.891Z,8.40
2023-05-18T16:31:21.472Z,9.20
2023-05-18T16:33:49.336Z,8.20
2023-05-18T16:36:17.198Z,7.80
2023-05-18T16:38:44.735Z,7.40
2023-05-18T16:41:12.825Z,9.60
2023-05-18T16:43:40.325Z,7.00
2023-05-18T16:46:07.800Z,9.00
2023-05-18T16:48:35.805Z,8.40
2023-05-18T16:51:06.872Z,9.00
2023-05-18T16:53:34.765Z,8.00
2023-05-18T16:56:03.511Z,9.00
2023-05-18T16:58:31.276Z,8.40
2023-05-18T17:00:58.864Z,8.60
2023-05-18T17:03:27.652Z,8.00
2023-05-18T17:05:55.182Z,13.60
2023-05-18T17:08:23.506Z,15.20
2023-05-18T17:10:50.975Z,7.40
2023-05-18T17:13:18.472Z,13.60
2023-05-18T17:15:46.005Z,8.80
2023-05-18T17:18:13.844Z,10.20
2023-05-18T17:20:41.401Z,8.40
2023-05-18T17:23:09.025Z,10.00
2023-05-18T17:25:36.916Z,9.00
2023-05-18T17:28:04.644Z,7.80
2023-05-18T17:30:32.425Z,10.00
2023-05-18T17:33:00.206Z,9.40
2023-05-18T17:35:27.741Z,7.80
2023-05-18T17:37:55.968Z,16.60
2023-05-18T17:40:23.828Z,12.00
2023-05-18T17:42:51.322Z,12.40
2023-05-18T17:45:18.961Z,10.00
2023-05-18T17:47:46.559Z,12.00
2023-05-18T17:50:14.228Z,13.60
2023-05-18T17:52:41.830Z,12.00
2023-05-18T17:55:10.462Z,11.40
2023-05-18T17:57:46.725Z,10.80
2023-05-18T18:00:14.860Z,9.00
2023-05-18T18:02:42.678Z,15.40
2023-05-18T18:05:10.311Z,13.00
2023-05-18T18:07:39.386Z,15.00
2023-05-18T18:10:07.678Z,14.00
2023-05-18T18:12:36.138Z,15.60
2023-05-18T18:15:03.998Z,12.00
2023-05-18T18:17:32.118Z,13.00
2023-05-18T18:19:59.542Z,11.60
2023-05-18T18:22:29.150Z,11.60
2023-05-18T18:24:56.788Z,56.25
2023-05-18T18:27:24.210Z,18.80
2023-05-18T18:29:51.633Z,14.20
2023-05-18T18:32:19.222Z,10.40
2023-05-18T18:34:46.703Z,9.40
2023-05-18T18:37:14.150Z,10.20
2023-05-18T18:39:41.679Z,11.40
2023-05-18T18:42:09.043Z,10.00
2023-05-18T18:44:36.490Z,10.40
2023-05-18T18:47:04.227Z,6.00
2023-05-18T18:49:31.710Z,8.80
2023-05-18T18:51:59.357Z,6.40
2023-05-18T18:54:27.225Z,8.20
2023-05-18T18:56:54.704Z,6.20
2023-05-18T18:59:22.075Z,8.20
2023-05-18T19:01:50.059Z,8.40
2023-05-18T19:04:18.986Z,9.20
2023-05-18T19:06:48.502Z,10.00
2023-05-18T19:09:16.115Z,6.20
2023-05-18T19:11:43.553Z,9.00
2023-05-18T19:14:11.290Z,8.00
2023-05-18T19:16:39.027Z,8.40
2023-05-18T19:19:09.076Z,7.40
2023-05-18T19:21:36.901Z,11.00
2023-05-18T19:24:05.327Z,8.20
2023-05-18T19:26:33.493Z,10.20
2023-05-18T19:29:01.220Z,11.20
2023-05-18T19:31:31.767Z,12.00
2023-05-18T19:34:00.226Z,12.40
2023-05-18T19:36:28.192Z,10.00
2023-05-18T19:38:56.006Z,11.40
2023-05-18T19:41:24.742Z,11.60
2023-05-18T19:43:53.405Z,13.20
2023-05-18T19:46:20.977Z,14.00
2023-05-18T19:48:48.608Z,13.60
2023-05-18T19:51:16.215Z,12.60
2023-05-18T19:53:44.843Z,14.60
2023-05-18T19:56:12.511Z,14.80
2023-05-18T19:58:40.173Z,11.00
2023-05-18T20:01:10.133Z,12.20
2023-05-18T20:03:40.841Z,16.40
2023-05-18T20:06:11.291Z,12.00
2023-05-18T20:08:38.984Z,14.00
2023-05-18T20:11:06.604Z,16.40
2023-05-18T20:13:34.198Z,13.80
2023-05-18T20:16:05.821Z,18.00
2023-05-18T20:18:35.076Z,21.00
2023-05-18T20:21:03.053Z,19.00
2023-05-18T20:23:30.660Z,18.00
2023-05-18T20:25:58.374Z,16.75
2023-05-18T20:28:27.212Z,14.40
2023-05-18T20:30:54.716Z,14.60
2023-05-18T20:33:22.762Z,3.20
2023-05-18T20:35:50.244Z,10.60
2023-05-18T20:38:18.074Z,8.00
2023-05-18T20:40:46.420Z,8.60
2023-05-18T20:43:18.172Z,11.20
2023-05-18T20:45:46.593Z,11.50
2023-05-18T20:48:16.795Z,11.50
2023-05-18T20:50:44.599Z,14.75
2023-05-18T20:53:12.090Z,13.25
2023-05-18T20:55:40.502Z,14.25
2023-05-18T20:58:10.496Z,14.50
2023-05-18T21:00:37.897Z,9.00
2023-05-18T21:03:05.393Z,16.00
2023-05-18T21:05:33.511Z,15.75
2023-05-18T21:08:00.913Z,15.75
2023-05-18T21:10:28.338Z,17.50
2023-05-18T21:12:56.110Z,19.25
2023-05-18T21:15:23.617Z,16.00
2023-05-18T21:17:51.135Z,19.75
2023-05-18T21:20:18.847Z,15.50
2023-05-18T21:22:46.685Z,17.75
2023-05-18T21:25:15.663Z,17.50
2023-05-18T21:27:43.147Z,18.50
2023-05-18T21:30:12.315Z,18.75
2023-05-18T21:32:41.019Z,17.25
2023-05-18T21:35:08.563Z,19.00
2023-05-18T21:37:37.051Z,18.00
2023-05-18T21:40:05.056Z,17.25
2023-05-18T21:42:33.382Z,18.25
2023-05-18T21:45:01.000Z,19.50
2023-05-18T21:47:28.413Z,14.50
2023-05-18T21:49:55.933Z,21.50
2023-05-18T21:52:23.579Z,20.50
2023-05-18T21:54:51.185Z,21.25
2023-05-18T21:57:18.615Z,22.25
2023-05-18T21:59:46.040Z,22.25
2023-05-18T22:02:13.636Z,22.00
2023-05-18T22:04:41.330Z,22.25
2023-05-18T22:07:08.950Z,22.00
2023-05-18T22:09:36.853Z,23.25
2023-05-18T22:12:04.568Z,24.75
2023-05-18T22:14:32.107Z,23.50
2023-05-18T22:16:59.650Z,22.00
2023-05-18T22:19:27.235Z,16.50
2023-05-18T22:21:54.837Z,16.75
2023-05-18T22:24:22.299Z,19.50
2023-05-18T22:26:49.886Z,19.75
2023-05-18T22:29:17.482Z,17.33
2023-05-18T22:31:45.247Z,19.00
2023-05-18T22:34:12.909Z,19.50
2023-05-18T22:36:40.425Z,20.00
2023-05-18T22:39:09.062Z,16.75
2023-05-18T22:41:36.604Z,21.25
2023-05-18T22:44:04.118Z,22.00
2023-05-18T22:46:31.615Z,23.00
2023-05-18T22:48:59.306Z,7.25
2023-05-18T22:51:26.714Z,23.50
2023-05-18T22:53:56.190Z,23.00
2023-05-18T22:56:23.651Z,21.25
2023-05-18T22:58:51.716Z,21.50
2023-05-18T23:01:19.089Z,21.00
2023-05-18T23:03:46.608Z,22.25
2023-05-18T23:06:14.131Z,20.25
2023-05-18T23:08:41.511Z,22.50
2023-05-18T23:11:09.108Z,22.50
2023-05-18T23:13:37.824Z,21.25
2023-05-18T23:16:06.318Z,20.50
2023-05-18T23:18:33.920Z,20.50
2023-05-18T23:21:01.300Z,21.75
2023-05-18T23:23:28.871Z,19.75
2023-05-18T23:25:57.294Z,21.25
2023-05-18T23:28:24.692Z,20.00
2023-05-18T23:30:52.158Z,21.25
2023-05-18T23:33:20.350Z,21.25
2023-05-18T23:35:50.617Z,21.50
2023-05-18T23:38:22.068Z,22.50
2023-05-18T23:40:52.929Z,22.75
2023-05-18T23:43:20.644Z,23.25
2023-05-18T23:45:48.386Z,20.00
2023-05-18T23:48:16.055Z,19.25
2023-05-18T23:50:44.110Z,20.75
2023-05-18T23:53:15.213Z,17.25
2023-05-18T23:55:42.924Z,18.25
2023-05-18T23:58:10.637Z,18.00
